Time;durP1;ratioP1;P1;durP2;ratioP2;P2;SDS_P1;SDS_P2;PMS_P1;PMS_P2;Temp;Humidity;BMP_temperature;BMP_pressure;BME280_temperature;BME280_humidity;BME280_pressure;Samples;Min_cycle;Max_cycle;Signal;HPM_P1;HPM_P2
2023/06/08 00:01:04;;;;;;;15.38;7.85;;;;;;;17.24;62.12;102105.34;5093028;28;20020;-45
2023/06/08 00:03:30;;;;;;;14.40;7.70;;;;;;;17.45;61.35;102109.81;5091881;28;20036;-43
2023/06/08 00:05:58;;;;;;;15.48;7.93;;;;;;;17.45;61.17;102107.19;5092396;28;20374;-45
2023/06/08 00:08:25;;;;;;;15.07;7.82;;;;;;;17.33;61.56;102105.38;5092691;28;20032;-44
2023/06/08 00:10:50;;;;;;;12.88;7.95;;;;;;;17.51;61.30;102103.69;5092406;28;20107;-44
2023/06/08 00:13:16;;;;;;;12.88;7.65;;;;;;;17.36;61.69;102108.03;5092752;28;20185;-46
2023/06/08 00:15:41;;;;;;;15.90;7.72;;;;;;;17.50;61.22;102110.75;5091604;28;20032;-45
2023/06/08 00:18:09;;;;;;;17.85;8.10;;;;;;;17.39;61.61;102105.41;5092024;28;20032;-47
2023/06/08 00:20:35;;;;;;;17.10;7.88;;;;;;;17.19;62.66;102107.06;5092165;28;20115;-46
2023/06/08 00:23:03;;;;;;;14.27;8.13;;;;;;;17.06;63.29;102105.22;5093615;28;20170;-45
2023/06/08 00:25:29;;;;;;;18.10;7.82;;;;;;;17.51;61.85;102098.41;5091795;28;20036;-46
2023/06/08 00:27:55;;;;;;;16.40;8.02;;;;;;;17.33;62.44;102097.47;5092584;28;20035;-47
2023/06/08 00:30:20;;;;;;;15.75;8.48;;;;;;;17.19;63.00;102093.91;5092857;28;20035;-46
2023/06/08 00:32:46;;;;;;;16.40;8.40;;;;;;;17.08;63.51;102090.28;5092060;28;20565;-45
2023/06/08 00:35:11;;;;;;;19.00;8.45;;;;;;;16.91;63.99;102089.31;5091658;28;20450;-46
2023/06/08 00:37:37;;;;;;;15.55;8.05;;;;;;;17.00;63.65;102092.03;5092060;28;20028;-45
2023/06/08 00:40:04;;;;;;;18.13;8.70;;;;;;;17.11;63.29;102094.72;5092611;28;20020;-46
2023/06/08 00:42:30;;;;;;;15.35;8.73;;;;;;;17.04;63.24;102092.03;5092385;28;20036;-46
2023/06/08 00:44:55;;;;;;;14.80;8.65;;;;;;;17.33;62.20;102089.56;5091651;28;20115;-45
2023/06/08 00:47:21;;;;;;;16.67;8.80;;;;;;;17.20;62.78;102089.50;5092175;28;20274;-46
2023/06/08 00:49:46;;;;;;;16.98;8.60;;;;;;;17.17;63.13;102085.09;5091424;28;20039;-46
2023/06/08 00:52:14;;;;;;;17.58;8.35;;;;;;;16.95;63.13;102089.38;5092137;28;20035;-45
2023/06/08 00:54:39;;;;;;;17.95;8.80;;;;;;;17.16;62.89;102092.97;5091110;28;20040;-45
2023/06/08 00:57:06;;;;;;;15.95;8.35;;;;;;;17.03;62.98;102084.13;5092214;28;20034;-46
2023/06/08 00:59:32;;;;;;;18.33;9.13;;;;;;;16.98;63.44;102080.56;5092029;28;20052;-46
2023/06/08 01:01:58;;;;;;;18.52;9.18;;;;;;;17.13;63.04;102090.34;5092395;28;20040;-48
2023/06/08 01:04:25;;;;;;;20.10;9.30;;;;;;;17.05;62.87;102079.75;5092407;28;20516;-46
2023/06/08 01:07:14;;;;;;;16.98;8.63;;;;;;;17.10;62.63;102085.03;5091754;28;20118;-45
2023/06/08 01:10:15;;;;;;;14.20;8.38;;;;;;;16.88;63.26;102069.13;5091142;28;20397;-45
2023/06/08 01:12:51;;;;;;;16.42;8.60;;;;;;;16.84;63.33;102066.44;5058062;28;20105;-46
2023/06/08 01:15:30;;;;;;;15.45;8.50;;;;;;;16.95;63.06;102076.19;5091252;28;20032;-44
2023/06/08 01:18:04;;;;;;;14.98;8.35;;;;;;;16.84;63.33;102069.94;5091106;28;20108;-46
2023/06/08 01:21:02;;;;;;;16.60;8.77;;;;;;;16.93;63.33;102075.28;5091200;28;20630;-45
2023/06/08 01:23:54;;;;;;;16.27;8.43;;;;;;;16.96;62.91;102075.28;5065247;28;20040;-45
2023/06/08 01:26:20;;;;;;;18.10;8.93;;;;;;;16.82;63.30;102057.66;5091060;28;20028;-45
2023/06/08 01:28:49;;;;;;;16.70;8.68;;;;;;;16.80;63.82;102056.75;5090588;28;20052;-44
2023/06/08 01:31:15;;;;;;;16.95;8.48;;;;;;;16.68;64.11;102056.66;5091374;28;20028;-45
2023/06/08 01:33:42;;;;;;;16.38;8.88;;;;;;;16.77;63.93;102059.38;5090229;28;20046;-45
2023/06/08 01:36:16;;;;;;;17.10;8.63;;;;;;;16.52;64.83;102058.28;5090839;28;20436;-45
2023/06/08 01:38:45;;;;;;;18.02;8.50;;;;;;;16.71;64.39;102054.06;5090488;28;20032;-45
2023/06/08 01:41:16;;;;;;;17.25;8.95;;;;;;;16.59;64.50;102050.47;5091041;28;20040;-45
2023/06/08 01:43:44;;;;;;;17.15;8.93;;;;;;;16.74;63.97;102049.69;5090138;28;20039;-45
2023/06/08 01:46:12;;;;;;;15.23;8.60;;;;;;;16.82;63.41;102044.50;5091056;28;20567;-45
2023/06/08 01:48:40;;;;;;;20.70;9.20;;;;;;;16.41;64.80;102045.00;5090597;28;20120;-47
2023/06/08 01:51:07;;;;;;;15.13;8.70;;;;;;;16.26;65.57;102049.28;5090864;28;20034;-44
2023/06/08 01:53:33;;;;;;;17.92;8.75;;;;;;;16.52;64.86;102056.53;5089972;28;20044;-47
2023/06/08 01:55:58;;;;;;;17.00;8.77;;;;;;;16.46;64.70;102043.34;5090709;28;20234;-44
2023/06/08 01:58:23;;;;;;;17.35;8.77;;;;;;;16.40;64.42;102042.41;5090725;28;20034;-45
2023/06/08 02:00:49;;;;;;;16.40;9.00;;;;;;;16.33;64.96;102043.22;5090032;28;20397;-45
2023/06/08 02:03:14;;;;;;;19.65;8.95;;;;;;;16.30;65.17;102038.78;5091703;28;20020;-45
2023/06/08 02:05:40;;;;;;;14.93;8.45;;;;;;;16.40;65.37;102038.03;5089569;28;20404;-48
2023/06/08 02:08:05;;;;;;;17.38;9.15;;;;;;;16.36;65.30;102046.75;5089091;28;20521;-46
2023/06/08 02:10:30;;;;;;;17.15;8.85;;;;;;;16.34;65.29;102044.97;5090130;28;20039;-48
2023/06/08 02:12:56;;;;;;;13.52;8.10;;;;;;;16.26;65.32;102039.66;5090447;28;20032;-46
2023/06/08 02:15:21;;;;;;;19.17;8.90;;;;;;;16.48;64.74;102041.56;5089184;28;20107;-46
2023/06/08 02:17:47;;;;;;;16.65;8.40;;;;;;;16.41;64.71;102047.66;5090423;28;20020;-46
2023/06/08 02:20:13;;;;;;;15.27;8.13;;;;;;;16.34;64.98;102043.22;5090625;28;20032;-45
2023/06/08 02:22:38;;;;;;;17.45;9.10;;;;;;;16.30;65.43;102045.81;5090078;28;20115;-46
2023/06/08 02:25:05;;;;;;;14.20;8.13;;;;;;;16.45;64.70;102040.69;5089801;28;20486;-49
2023/06/08 02:27:36;;;;;;;15.30;8.38;;;;;;;16.42;64.75;102041.53;5089494;28;20043;-48
2023/06/08 02:30:03;;;;;;;15.40;8.68;;;;;;;16.34;64.92;102048.50;5089902;28;20107;-46
2023/06/08 02:32:32;;;;;;;16.70;8.13;;;;;;;16.38;64.66;102041.50;5089673;28;20059;-47
2023/06/08 02:34:59;;;;;;;13.00;8.05;;;;;;;16.38;64.73;102036.22;5089777;28;20212;-48
2023/06/08 02:37:25;;;;;;;18.30;9.13;;;;;;;16.21;65.35;102031.72;5090901;28;20028;-47
2023/06/08 02:39:51;;;;;;;16.17;8.55;;;;;;;16.41;64.87;102033.59;5089982;28;20031;-46
2023/06/08 02:42:18;;;;;;;22.65;9.02;;;;;;;16.47;64.63;102034.53;5089946;28;20382;-45
2023/06/08 02:44:44;;;;;;;15.65;8.32;;;;;;;16.44;64.92;102031.00;5089041;28;20032;-46
2023/06/08 02:47:10;;;;;;;16.63;8.95;;;;;;;16.41;64.85;102034.50;5089810;28;20119;-48
2023/06/08 02:49:35;;;;;;;17.90;8.98;;;;;;;16.33;65.40;102038.84;5089311;28;20128;-47
2023/06/08 02:52:00;;;;;;;15.05;8.40;;;;;;;16.31;65.83;102042.31;5088863;28;20028;-47
2023/06/08 02:54:26;;;;;;;16.70;8.40;;;;;;;16.35;65.86;102041.44;5089098;28;20052;-47
2023/06/08 02:56:51;;;;;;;16.77;8.98;;;;;;;16.50;65.67;102038.97;5089400;28;20504;-50
2023/06/08 02:59:16;;;;;;;18.67;8.20;;;;;;;16.40;65.70;102043.28;5089616;28;20089;-47
2023/06/08 03:01:52;;;;;;;14.75;8.70;;;;;;;16.34;65.84;102044.97;5089158;28;20028;-45
2023/06/08 03:04:18;;;;;;;15.20;8.32;;;;;;;16.55;65.55;102043.38;5088992;28;20036;-47
2023/06/08 03:06:43;;;;;;;21.58;8.77;;;;;;;16.28;66.42;102048.44;5108468;22;20560;-46
2023/06/08 03:09:09;;;;;;;19.48;8.88;;;;;;;16.58;65.76;102039.91;5089324;28;20036;-44
2023/06/08 03:11:34;;;;;;;15.18;8.73;;;;;;;16.61;65.20;102038.19;5089035;28;20328;-45
2023/06/08 03:14:00;;;;;;;15.85;8.60;;;;;;;16.78;64.72;102046.19;5089454;28;20059;-51
2023/06/08 03:16:26;;;;;;;15.52;8.50;;;;;;;16.77;64.11;102041.81;5084423;28;20036;-44
2023/06/08 03:18:52;;;;;;;18.15;9.00;;;;;;;16.65;64.51;102035.59;5069012;28;20028;-43
2023/06/08 03:21:20;;;;;;;18.08;9.05;;;;;;;16.70;64.31;102040.03;5069794;28;20032;-44
2023/06/08 03:23:48;;;;;;;16.83;8.52;;;;;;;16.59;64.69;102031.09;5068708;28;20131;-45
2023/06/08 03:26:14;;;;;;;14.77;8.13;;;;;;;16.76;64.01;102041.81;5069227;28;20036;-43
2023/06/08 03:28:40;;;;;;;15.52;8.85;;;;;;;16.51;65.00;102043.34;5071405;28;20041;-45
2023/06/08 03:31:05;;;;;;;15.68;8.70;;;;;;;16.62;64.54;102039.09;5073833;28;20575;-45
2023/06/08 03:33:32;;;;;;;15.00;8.35;;;;;;;16.74;64.40;102048.81;5073057;28;20457;-43
2023/06/08 03:35:57;;;;;;;17.75;8.73;;;;;;;16.78;64.15;102046.19;5073261;28;20040;-46
2023/06/08 03:38:23;;;;;;;13.93;8.65;;;;;;;16.69;64.00;102046.16;5073066;28;20029;-47
2023/06/08 03:40:48;;;;;;;15.63;8.45;;;;;;;16.76;64.19;102042.69;5072777;28;20490;-44
2023/06/08 03:43:13;;;;;;;16.60;8.57;;;;;;;16.81;64.04;102050.63;5073478;28;20082;-45
2023/06/08 03:45:39;;;;;;;13.00;8.05;;;;;;;16.70;64.61;102039.13;5072516;28;20491;-45
2023/06/08 03:48:04;;;;;;;14.20;8.30;;;;;;;16.45;65.65;102033.66;5073376;28;20032;-45
2023/06/08 03:50:30;;;;;;;15.73;8.48;;;;;;;16.68;65.04;102030.34;5073148;28;20457;-47
2023/06/08 03:52:56;;;;;;;17.58;8.45;;;;;;;16.66;65.17;102032.94;5073358;28;20483;-51
2023/06/08 03:55:21;;;;;;;13.48;7.80;;;;;;;16.78;64.92;102037.41;5072564;28;20086;-46
2023/06/08 03:57:47;;;;;;;14.48;8.20;;;;;;;16.78;64.66;102038.31;5072651;28;20122;-47
2023/06/08 04:00:13;;;;;;;14.45;8.05;;;;;;;16.92;64.73;102041.91;5072761;28;20028;-47
2023/06/08 04:02:38;;;;;;;16.83;8.27;;;;;;;16.99;64.31;102034.94;5072687;28;20028;-48
2023/06/08 04:05:06;;;;;;;14.15;7.80;;;;;;;16.93;64.14;102040.16;5072265;28;20494;-44
2023/06/08 04:07:34;;;;;;;13.32;7.80;;;;;;;16.89;64.63;102036.66;5072865;28;20040;-44
2023/06/08 04:10:00;;;;;;;14.13;7.88;;;;;;;17.04;64.06;102039.34;5072831;28;20029;-45
2023/06/08 04:12:25;;;;;;;15.40;8.40;;;;;;;17.03;63.93;102041.97;5073155;28;20047;-46
2023/06/08 04:14:50;;;;;;;13.80;8.63;;;;;;;16.88;63.97;102040.13;5071605;28;20101;-46
2023/06/08 04:17:16;;;;;;;17.70;8.90;;;;;;;16.85;64.00;102042.75;5072859;28;20420;-44
2023/06/08 04:19:41;;;;;;;15.80;8.48;;;;;;;16.91;63.85;102037.50;5075410;28;20075;-47
2023/06/08 04:22:07;;;;;;;10.90;7.75;;;;;;;17.00;63.72;102044.59;5075390;28;20173;-44
2023/06/08 04:24:33;;;;;;;15.13;7.68;;;;;;;17.09;63.34;102049.91;5073993;28;20406;-43
2023/06/08 04:26:58;;;;;;;13.77;8.35;;;;;;;16.93;63.69;102048.94;5073750;28;20032;-45
2023/06/08 04:29:24;;;;;;;13.60;7.63;;;;;;;16.99;63.72;102046.34;5073624;28;20058;-47
2023/06/08 04:31:49;;;;;;;14.23;7.68;;;;;;;16.97;63.53;102044.56;5071785;28;20029;-45
2023/06/08 04:34:15;;;;;;;15.48;8.50;;;;;;;17.07;63.13;102041.13;5072713;28;20067;-45
2023/06/08 04:36:44;;;;;;;12.15;7.65;;;;;;;17.12;62.98;102044.66;5071737;28;20040;-45
2023/06/08 04:39:09;;;;;;;16.80;7.95;;;;;;;17.03;63.28;102040.22;5071795;28;20048;-44
2023/06/08 04:41:36;;;;;;;14.05;8.10;;;;;;;16.95;63.40;102039.31;5071965;28;20059;-44
2023/06/08 04:44:02;;;;;;;13.88;7.95;;;;;;;17.01;63.34;102041.97;5072004;28;20032;-45
2023/06/08 04:46:33;;;;;;;13.15;7.65;;;;;;;17.04;62.99;102041.09;5072497;28;20430;-46
2023/06/08 04:48:59;;;;;;;15.15;7.63;;;;;;;17.23;62.63;102039.44;5072087;28;20040;-46
2023/06/08 04:51:29;;;;;;;14.27;7.75;;;;;;;17.19;62.82;102042.94;5072489;28;20159;-44
2023/06/08 04:53:59;;;;;;;15.65;7.75;;;;;;;17.22;62.98;102041.19;5071969;28;20091;-47
2023/06/08 04:56:28;;;;;;;11.10;7.43;;;;;;;17.21;62.85;102030.63;5072558;28;20033;-44
2023/06/08 04:58:53;;;;;;;16.08;8.02;;;;;;;17.38;62.52;102031.59;5072250;28;20032;-46
2023/06/08 05:01:19;;;;;;;15.63;8.30;;;;;;;17.44;62.35;102031.63;5073016;28;20094;-47
2023/06/08 05:03:44;;;;;;;17.95;8.25;;;;;;;17.52;62.08;102032.50;5070263;28;20406;-44
2023/06/08 05:06:09;;;;;;;14.40;7.80;;;;;;;17.72;61.54;102032.63;5071947;28;20032;-50
2023/06/08 05:08:35;;;;;;;16.40;8.10;;;;;;;17.70;61.69;102029.06;5071568;28;20033;-46
2023/06/08 05:11:00;;;;;;;15.63;8.52;;;;;;;17.86;61.40;102025.63;5071090;28;20029;-45
2023/06/08 05:13:26;;;;;;;15.65;8.70;;;;;;;18.38;60.04;102015.97;5072573;28;20064;-50
2023/06/08 05:15:51;;;;;;;13.52;8.13;;;;;;;19.64;56.99;102020.06;5071402;28;20100;-47
2023/06/08 05:18:16;;;;;;;13.60;8.23;;;;;;;20.91;52.80;102015.47;5072195;28;20028;-45
2023/06/08 05:20:41;;;;;;;18.38;8.80;;;;;;;21.33;50.66;102024.72;5071877;28;20032;-45
2023/06/08 05:23:07;;;;;;;15.18;9.18;;;;;;;20.99;51.08;102024.19;5072313;28;20380;-46
2023/06/08 05:25:36;;;;;;;17.95;9.63;;;;;;;20.95;51.46;102027.78;5071058;28;20123;-52
2023/06/08 05:28:02;;;;;;;15.73;8.70;;;;;;;21.83;48.37;102026.66;5071762;28;20089;-46
2023/06/08 05:30:28;;;;;;;14.85;8.88;;;;;;;22.27;47.81;102021.56;5071495;28;20402;-46
2023/06/08 05:32:53;;;;;;;16.83;9.30;;;;;;;21.62;49.57;102024.31;5071822;28;20031;-47
2023/06/08 05:35:19;;;;;;;18.67;10.13;;;;;;;21.39;49.90;102008.72;5072006;28;20028;-49
2023/06/08 05:37:44;;;;;;;18.15;10.25;;;;;;;21.03;50.75;102013.56;5072031;28;20405;-44
2023/06/08 05:40:09;;;;;;;18.42;9.85;;;;;;;22.22;48.42;102004.81;5072924;28;20025;-47
2023/06/08 05:42:35;;;;;;;16.40;9.88;;;;;;;22.34;48.27;102006.38;5072138;28;20120;-50
2023/06/08 05:45:00;;;;;;;16.88;9.80;;;;;;;23.21;46.07;102005.63;5071033;28;20090;-45
2023/06/08 05:47:26;;;;;;;16.95;8.77;;;;;;;24.11;43.57;101999.13;5071131;28;20394;-47
2023/06/08 05:49:51;;;;;;;15.80;9.07;;;;;;;24.47;41.27;102000.00;5070816;28;20653;-46
2023/06/08 05:52:16;;;;;;;16.65;9.68;;;;;;;24.01;43.11;102000.28;5072286;28;20083;-44
2023/06/08 05:54:41;;;;;;;16.92;10.88;;;;;;;24.38;42.15;102000.28;5071069;28;20029;-48
2023/06/08 05:57:07;;;;;;;17.67;9.60;;;;;;;23.00;44.50;101998.97;5071723;28;20062;-45
2023/06/08 05:59:32;;;;;;;15.23;9.40;;;;;;;22.71;45.09;101990.66;5070473;28;20029;-48
2023/06/08 06:01:57;;;;;;;18.83;10.55;;;;;;;21.84;47.76;101991.22;5070802;28;20055;-49
2023/06/08 06:04:23;;;;;;;17.55;10.45;;;;;;;20.94;50.17;101996.84;5070734;28;20501;-45
2023/06/08 06:06:48;;;;;;;17.90;10.75;;;;;;;20.38;52.10;101994.78;5069812;28;20055;-51
2023/06/08 06:09:13;;;;;;;19.90;11.23;;;;;;;20.29;52.75;101993.09;5070505;28;20039;-44
2023/06/08 06:11:39;;;;;;;20.83;10.85;;;;;;;19.76;54.47;101991.72;5070072;28;20499;-46
2023/06/08 06:14:04;;;;;;;16.52;10.10;;;;;;;19.96;54.27;101996.00;5070354;28;20113;-44
2023/06/08 06:16:29;;;;;;;17.20;10.38;;;;;;;20.60;53.15;101991.06;5070017;28;20036;-44
2023/06/08 06:18:55;;;;;;;19.33;10.25;;;;;;;20.67;52.50;101990.09;5070500;28;20119;-49
2023/06/08 06:21:20;;;;;;;17.80;10.18;;;;;;;20.60;53.31;101994.59;5070483;28;20063;-45
2023/06/08 06:23:46;;;;;;;17.17;10.80;;;;;;;21.37;51.20;101991.94;5069124;28;20024;-47
2023/06/08 06:26:11;;;;;;;20.67;10.63;;;;;;;21.67;49.78;101993.28;5069866;28;20378;-47
2023/06/08 06:28:38;;;;;;;18.02;11.10;;;;;;;22.97;46.70;101979.53;5069494;28;20032;-45
2023/06/08 06:31:03;;;;;;;14.90;9.07;;;;;;;24.01;43.56;101981.63;5070497;28;20043;-51
2023/06/08 06:33:28;;;;;;;17.58;8.25;;;;;;;24.13;42.71;101978.66;5069539;28;20044;-49
2023/06/08 06:35:54;;;;;;;15.50;7.75;;;;;;;24.68;41.63;101990.56;5069432;28;20448;-49
2023/06/08 06:38:20;;;;;;;13.70;7.88;;;;;;;25.09;40.41;101989.44;5070144;28;20037;-49
2023/06/08 06:40:47;;;;;;;16.67;9.00;;;;;;;24.73;40.41;101985.97;5069539;28;20035;-49
2023/06/08 06:43:12;;;;;;;13.95;7.88;;;;;;;25.27;39.38;101990.69;5070065;28;20265;-50
2023/06/08 06:45:38;;;;;;;14.95;8.48;;;;;;;25.88;38.13;101984.34;5068807;28;20487;-46
2023/06/08 06:48:04;;;;;;;14.75;8.15;;;;;;;26.19;37.61;101984.19;5069955;28;20032;-45
2023/06/08 06:50:30;;;;;;;14.23;8.10;;;;;;;26.00;38.34;101996.41;5069641;28;20044;-49
2023/06/08 06:52:55;;;;;;;15.15;8.30;;;;;;;26.64;37.08;101989.78;5070625;28;20032;-45
2023/06/08 06:55:21;;;;;;;15.43;8.32;;;;;;;26.73;36.58;101999.25;5070536;28;20032;-46
2023/06/08 06:57:48;;;;;;;16.10;8.45;;;;;;;27.45;35.25;101991.16;5070478;28;20025;-47
2023/06/08 07:00:14;;;;;;;15.52;8.60;;;;;;;26.80;36.67;101982.94;5070917;28;20025;-48
2023/06/08 07:02:40;;;;;;;16.10;8.68;;;;;;;26.45;36.19;101994.03;5069660;28;20255;-48
2023/06/08 07:05:07;;;;;;;14.50;8.13;;;;;;;26.41;36.88;101992.41;5069887;28;20490;-47
2023/06/08 07:07:33;;;;;;;13.68;7.82;;;;;;;26.03;36.64;101983.84;5068810;28;20403;-50
2023/06/08 07:09:58;;;;;;;14.57;8.35;;;;;;;25.93;36.34;101992.19;5069500;28;20102;-45
2023/06/08 07:12:23;;;;;;;15.88;8.27;;;;;;;25.79;36.86;101992.66;5069623;28;20453;-51
2023/06/08 07:14:49;;;;;;;15.02;8.80;;;;;;;25.88;36.90;101988.78;5065809;28;20028;-50
2023/06/08 07:17:14;;;;;;;14.60;8.50;;;;;;;27.36;34.75;101990.66;5054442;28;20398;-48
2023/06/08 07:19:41;;;;;;;13.05;7.40;;;;;;;27.08;35.04;101990.84;5031999;28;20141;-50
2023/06/08 07:22:06;;;;;;;15.68;9.00;;;;;;;27.64;34.17;101987.78;5038254;28;20537;-45
2023/06/08 07:24:32;;;;;;;15.52;9.57;;;;;;;26.72;35.02;101986.81;5048289;28;20072;-52
2023/06/08 07:26:57;;;;;;;18.55;9.40;;;;;;;27.16;34.25;101985.19;5048031;28;20033;-47
2023/06/08 07:29:23;;;;;;;14.32;9.48;;;;;;;25.93;36.72;101979.69;5038113;28;20061;-49
2023/06/08 07:31:48;;;;;;;18.25;10.05;;;;;;;26.82;35.30;101988.25;5029732;28;20045;-51
2023/06/08 07:34:13;;;;;;;17.40;9.90;;;;;;;26.90;35.38;101992.41;5028637;28;20025;-43
2023/06/08 07:36:39;;;;;;;16.05;9.65;;;;;;;26.38;36.25;101987.13;5072564;28;20036;-48
2023/06/08 07:39:04;;;;;;;20.45;11.02;;;;;;;24.99;39.37;102002.19;5088638;28;20482;-46
2023/06/08 07:41:30;;;;;;;16.83;9.65;;;;;;;25.64;37.67;101985.13;5088965;28;20047;-50
2023/06/08 07:43:56;;;;;;;19.67;10.52;;;;;;;24.25;40.08;101991.72;5088597;28;20375;-44
2023/06/08 07:46:22;;;;;;;15.20;8.98;;;;;;;24.74;38.61;101992.19;5088625;28;20024;-49
2023/06/08 07:48:49;;;;;;;17.65;9.73;;;;;;;24.95;39.22;101997.81;5088600;28;20043;-50
2023/06/08 07:51:14;;;;;;;17.73;8.73;;;;;;;25.25;38.33;101990.72;5089016;28;20498;-46
2023/06/08 07:53:40;;;;;;;17.20;9.00;;;;;;;25.77;36.70;101976.66;5088134;28;20034;-45
2023/06/08 07:56:06;;;;;;;19.08;9.23;;;;;;;25.64;37.38;101977.97;5088804;28;20038;-47
2023/06/08 07:58:31;;;;;;;16.58;8.98;;;;;;;26.54;37.27;101977.63;5068454;28;20037;-52
2023/06/08 08:00:57;;;;;;;13.35;8.13;;;;;;;27.05;34.76;101973.09;5068569;28;20032;-47
2023/06/08 08:03:23;;;;;;;12.75;7.07;;;;;;;28.44;32.38;101970.16;5071449;28;20041;-45
2023/06/08 08:05:49;;;;;;;14.10;7.90;;;;;;;27.85;31.77;101965.50;5088461;28;20047;-50
2023/06/08 08:08:15;;;;;;;15.93;7.18;;;;;;;28.20;32.14;101974.78;5074616;28;20082;-47
2023/06/08 08:10:40;;;;;;;11.98;7.10;;;;;;;28.38;32.01;101968.63;5068088;28;20340;-45
2023/06/08 08:13:07;;;;;;;10.35;6.63;;;;;;;29.22;31.58;101972.88;5069348;28;20032;-51
2023/06/08 08:15:32;;;;;;;13.98;7.82;;;;;;;28.74;31.39;101976.88;5060052;28;20030;-49
2023/06/08 08:17:57;;;;;;;15.05;8.13;;;;;;;28.19;31.89;101979.25;5059614;28;20051;-47
2023/06/08 08:20:23;;;;;;;13.68;7.90;;;;;;;27.14;33.98;101982.56;5072827;28;20033;-48
2023/06/08 08:22:48;;;;;;;15.80;8.38;;;;;;;26.17;35.73;101986.03;5071565;28;20075;-50
2023/06/08 08:25:13;;;;;;;12.98;8.00;;;;;;;25.36;36.73;101983.28;5081215;28;20032;-45
2023/06/08 08:27:39;;;;;;;15.57;8.88;;;;;;;24.15;39.01;101983.97;5091182;28;20036;-49
2023/06/08 08:30:05;;;;;;;15.57;8.68;;;;;;;24.48;39.32;101983.09;5072111;28;20111;-46
2023/06/08 08:32:30;;;;;;;16.67;8.48;;;;;;;25.22;39.45;101985.47;5070377;28;20040;-46
2023/06/08 08:34:56;;;;;;;13.00;8.07;;;;;;;26.09;37.17;101974.75;5071416;28;20562;-46
2023/06/08 08:37:21;;;;;;;16.50;8.40;;;;;;;25.16;38.68;101982.13;5070798;28;20051;-52
2023/06/08 08:39:46;;;;;;;17.55;8.50;;;;;;;25.08;38.51;101986.78;5071541;28;20028;-46
2023/06/08 08:42:18;;;;;;;17.75;8.93;;;;;;;25.22;38.83;101974.81;5071125;28;20040;-49
2023/06/08 08:44:45;;;;;;;21.92;8.20;;;;;;;24.99;38.40;101980.84;5071586;28;20110;-45
2023/06/08 08:47:13;;;;;;;14.88;8.23;;;;;;;25.22;38.27;101976.59;5071496;28;20508;-44
2023/06/08 08:49:44;;;;;;;20.27;8.82;;;;;;;24.65;39.17;101979.97;5069884;28;20041;-47
2023/06/08 08:52:10;;;;;;;16.40;8.70;;;;;;;23.94;41.52;101971.16;5072009;28;20059;-42
2023/06/08 08:54:38;;;;;;;14.18;7.93;;;;;;;24.40;41.59;101981.53;5070894;28;20032;-49
2023/06/08 08:57:06;;;;;;;18.52;9.38;;;;;;;24.14;42.32;101974.22;5071749;28;20356;-49
2023/06/08 08:59:33;;;;;;;20.42;9.15;;;;;;;24.70;40.88;101972.75;5071191;28;20055;-45
2023/06/08 09:01:58;;;;;;;16.33;8.68;;;;;;;24.50;41.35;101981.28;5071842;28;20441;-49
2023/06/08 09:04:24;;;;;;;15.38;8.98;;;;;;;24.17;41.42;101975.00;5071137;28;20173;-46
2023/06/08 09:06:55;;;;;;;18.83;8.63;;;;;;;24.21;41.92;101976.69;5067805;28;20036;-44
2023/06/08 09:09:21;;;;;;;16.40;8.15;;;;;;;24.59;42.94;101982.81;5071365;28;20136;-48
2023/06/08 09:11:57;;;;;;;18.23;8.90;;;;;;;24.74;41.46;101979.75;5071240;28;20128;-48
2023/06/08 09:14:22;;;;;;;13.57;8.65;;;;;;;24.26;41.63;101973.94;5071119;28;20465;-45
2023/06/08 09:16:48;;;;;;;16.85;8.52;;;;;;;24.24;41.99;101973.09;5069090;28;20060;-46
2023/06/08 09:19:14;;;;;;;15.52;8.27;;;;;;;24.26;41.77;101968.59;5071442;28;20037;-51
2023/06/08 09:21:44;;;;;;;19.67;9.05;;;;;;;23.64;43.43;101971.00;5070916;28;20411;-44
2023/06/08 09:24:11;;;;;;;19.02;9.68;;;;;;;23.88;42.46;101961.53;5070655;28;20036;-53
2023/06/08 09:26:55;;;;;;;17.77;9.52;;;;;;;23.84;43.00;101959.88;5069295;28;20036;-48
2023/06/08 09:29:39;;;;;;;18.02;9.02;;;;;;;23.89;43.43;101951.75;5071089;28;20031;-44
2023/06/08 09:32:05;;;;;;;;;;;;;;;23.68;44.07;101954.03;5071664;28;20032;-45
2023/06/08 09:34:33;;;;;;;19.70;9.27;;;;;;;23.80;43.41;101952.84;5070262;28;19912;-45
2023/06/08 09:37:10;;;;;;;16.42;9.02;;;;;;;23.62;43.97;101948.84;5071060;28;20047;-47
2023/06/08 09:39:39;;;;;;;16.08;9.23;;;;;;;24.07;43.83;101944.19;5070460;28;20044;-48
2023/06/08 09:42:06;;;;;;;15.38;8.65;;;;;;;24.62;43.03;101958.75;5071058;28;20037;-46
2023/06/08 09:44:31;;;;;;;15.25;8.60;;;;;;;24.47;42.34;101954.69;5070053;28;20108;-46
2023/06/08 09:46:57;;;;;;;16.40;8.73;;;;;;;24.13;41.38;101951.16;5070717;28;20047;-43
2023/06/08 09:49:22;;;;;;;14.95;8.60;;;;;;;24.29;41.68;101948.97;5070745;28;20038;-49
2023/06/08 09:51:50;;;;;;;15.27;8.63;;;;;;;23.63;43.57;101947.06;5070333;28;21461;-48
2023/06/08 09:54:16;;;;;;;16.58;8.63;;;;;;;24.40;41.56;101941.56;5070192;28;20040;-46
2023/06/08 09:56:52;;;;;;;16.17;8.82;;;;;;;24.87;40.47;101946.47;5070006;28;20143;-52
2023/06/08 09:59:22;;;;;;;17.17;7.93;;;;;;;24.63;41.28;101945.38;5070376;28;20082;-46
2023/06/08 10:01:54;;;;;;;17.42;8.55;;;;;;;24.49;41.12;101944.88;5070065;28;20047;-48
2023/06/08 10:04:29;;;;;;;16.02;8.73;;;;;;;24.44;41.09;101953.91;5069870;28;20115;-47
2023/06/08 10:07:17;;;;;;;14.95;8.48;;;;;;;24.72;40.35;101941.56;5069951;28;20086;-50
2023/06/08 10:09:44;;;;;;;14.43;8.27;;;;;;;24.84;40.96;101948.34;5069926;28;20147;-45
2023/06/08 10:12:10;;;;;;;14.13;8.50;;;;;;;24.81;40.80;101951.97;5070165;28;20082;-45
2023/06/08 10:14:37;;;;;;;15.40;7.60;;;;;;;25.40;40.10;101944.88;5069088;28;20036;-49
2023/06/08 10:17:03;;;;;;;16.63;8.30;;;;;;;24.50;40.83;101949.28;5068078;28;20032;-49
2023/06/08 10:19:31;;;;;;;15.70;8.18;;;;;;;24.47;41.44;101949.34;5068859;28;20040;-55
2023/06/08 10:21:57;;;;;;;15.18;7.97;;;;;;;24.92;40.85;101944.56;5069730;28;20517;-49
2023/06/08 10:24:25;;;;;;;11.27;7.10;;;;;;;25.53;38.62;101934.69;5069448;28;20563;-46
2023/06/08 10:26:50;;;;;;;13.60;7.28;;;;;;;25.40;40.74;101936.00;5069105;28;20033;-45
2023/06/08 10:29:17;;;;;;;15.63;8.07;;;;;;;25.43;39.03;101934.09;5069743;28;20055;-47
2023/06/08 10:31:47;;;;;;;15.57;7.68;;;;;;;25.30;40.11;101934.53;5069391;28;20106;-50
2023/06/08 10:34:14;;;;;;;13.63;6.90;;;;;;;25.73;39.40;101926.06;5069028;28;20036;-47
2023/06/08 10:36:42;;;;;;;11.48;6.38;;;;;;;25.71;37.38;101926.13;5068819;28;20105;-47
2023/06/08 10:39:13;;;;;;;10.27;6.53;;;;;;;26.01;36.81;101921.53;5069518;28;20048;-48
2023/06/08 10:41:56;;;;;;;14.45;6.93;;;;;;;25.92;36.78;101929.88;5069764;28;20119;-46
2023/06/08 10:44:25;;;;;;;11.73;6.40;;;;;;;25.89;37.33;101926.44;5069425;28;20113;-46
2023/06/08 10:47:04;;;;;;;15.48;6.97;;;;;;;25.34;37.45;101926.38;5068493;28;20439;-45
2023/06/08 10:49:34;;;;;;;9.80;6.22;;;;;;;25.65;37.66;101918.31;5070706;28;20041;-45
2023/06/08 10:52:02;;;;;;;13.23;6.65;;;;;;;25.82;37.37;101917.75;5069863;28;20494;-49
2023/06/08 10:54:28;;;;;;;12.30;5.80;;;;;;;25.86;37.66;101925.59;5070426;28;20041;-45
2023/06/08 10:56:56;;;;;;;14.90;6.40;;;;;;;25.76;36.73;101929.50;5070664;28;20047;-50
2023/06/08 10:59:30;;;;;;;14.15;6.30;;;;;;;25.59;37.15;101926.53;5071508;28;20562;-44
2023/06/08 11:02:00;;;;;;;13.73;6.10;;;;;;;25.79;37.05;101918.75;5063268;28;20387;-49
2023/06/08 11:04:28;;;;;;;12.95;6.70;;;;;;;26.00;37.35;101919.78;5070704;28;20748;-44
2023/06/08 11:06:58;;;;;;;12.38;6.07;;;;;;;26.08;36.14;101917.75;5071338;28;20538;-45
2023/06/08 11:09:23;;;;;;;12.45;6.22;;;;;;;26.32;36.49;101902.66;5070265;28;20033;-49
2023/06/08 11:11:50;;;;;;;10.25;5.60;;;;;;;26.37;37.23;101900.69;5070399;28;20483;-44
2023/06/08 11:14:20;;;;;;;12.43;6.07;;;;;;;26.45;36.50;101897.75;5071410;28;20032;-42
2023/06/08 11:16:51;;;;;;;14.43;6.93;;;;;;;26.37;36.54;101907.84;5069754;28;20136;-47